Othello — LXOD — position and weather

sailwx.info

Track history (hours):
 
Tides and Currents Weather Stations Pressure Air Temp Water Temp Dewpoint Dewpoint Depression Visibility Wind Speed Wind Dir Waves Ship Positions

Othello

Last reported at 2014-Oct-25 18:29 UTC. Time now 2014-Oct-25 19:01 UTC.
Position N 51°46' E 003°19'.

Length 104 m; draft 7.2 m.

Type: Ship. MMSI: 253279000.

Date/timePositionNaut miles runAvg speedWind from/ knotsBaromVisibWave heightAir tempDewpointWater temp
2014-Oct-25 18:29N 51°46' E 003°19'0 0.0
2014-Oct-25 17:32N 51°46' E 003°19'0 0.0
2014-Oct-25 12:29N 51°45' E 003°19'0 0.0
2014-Oct-25 06:11N 51°46' E 003°19'0 0.0
2014-Oct-25 01:32N 51°46' E 003°19'0 0.0
2014-Oct-25 00:32N 51°46' E 003°19'0 0.0
2014-Oct-24 23:32N 51°46' E 003°19'0 0.1
2014-Oct-24 22:26N 51°46' E 003°19'45 4.5
2014-Oct-24 12:27N 52°14' E 002°23'12 9.7
2014-Oct-24 11:13N 52°25' E 002°17'710.6
2014-Oct-24 10:33N 52°32' E 002°13'1110.8
2014-Oct-24 09:32N 52°42' E 002°07'1211.9
2014-Oct-24 08:33N 52°49' E 001°51'1312.5
2014-Oct-24 07:33N 52°57' E 001°35'1211.9
2014-Oct-24 06:33N 53°07' E 001°24'4511.1
2014-Oct-24 02:33N 53°45' E 000°45'1010.2
2014-Oct-24 01:33N 53°53' E 000°36'9 9.5
2014-Oct-24 00:33N 54°01' E 000°27'9 8.8
2014-Oct-23 23:33N 54°08' E 000°19'8 8.0
2014-Oct-23 22:33N 54°15' E 000°12'8 7.9
2014-Oct-23 21:33N 54°22' E 000°05'8 8.0
2014-Oct-23 20:33N 54°29' W 000°03'8 8.4
2014-Oct-23 19:33N 54°36' W 000°11'9 8.8
2014-Oct-23 18:33N 54°42' W 000°22'10 9.7
2014-Oct-23 17:33N 54°47' W 000°36'11 8.1
2014-Oct-23 16:08N 54°45' W 000°56'6 9.5
2014-Oct-23 15:33N 54°41' W 001°04'7 5.3
2014-Oct-23 14:15N 54°36' W 001°11'0 0.0
2014-Oct-23 09:30N 54°36' W 001°11'0 0.0
2014-Oct-23 07:34N 54°36' W 001°11'0 0.0
2014-Oct-22 10:24N 54°36' W 001°11'2 1.9
2014-Oct-22 09:33N 54°37' W 001°09'10 9.6
2014-Oct-22 08:33N 54°38' W 000°53'1311.7
2014-Oct-22 07:25N 54°32' W 000°32'910.5
2014-Oct-22 06:33N 54°25' W 000°22'10 9.7
2014-Oct-22 05:33N 54°17' W 000°12'9 9.0
2014-Oct-22 04:33N 54°10' W 000°03'8 8.4
2014-Oct-22 03:33N 54°03' E 000°05'8 7.9
2014-Oct-22 02:33N 53°56' E 000°12'8 7.7
2014-Oct-22 01:33N 53°49' E 000°18'7 7.5
2014-Oct-22 00:33N 53°43' E 000°25'8 7.9
2014-Oct-21 23:33N 53°37' E 000°34'9 8.6
2014-Oct-21 22:32N 53°32' E 000°46'31 6.2
2014-Oct-21 17:33N 53°09' E 001°20'2 1.7
2014-Oct-21 16:34N 53°08' E 001°22'3 2.7
2014-Oct-21 15:33N 53°06' E 001°25'5 4.8
2014-Oct-21 14:33N 53°01' E 001°29'8 7.6
2014-Oct-21 13:33N 52°56' E 001°37'1111.4
2014-Oct-21 12:33N 52°49' E 001°52'1211.8
2014-Oct-21 11:30N 52°41' E 002°08'1111.6
2014-Oct-21 10:32N 52°31' E 002°14'5210.0
2014-Oct-21 05:22N 51°46' E 002°55'810.4
2014-Oct-21 04:33N 51°45' E 003°09'10 9.6
2014-Oct-21 03:33N 51°38' E 003°20'1212.6
2014-Oct-21 02:33N 51°28' E 003°31'1010.2
2014-Oct-21 01:34N 51°22' E 003°45'1110.6
2014-Oct-21 00:33N 51°26' E 004°00'8 8.3
2014-Oct-20 23:34N 51°23' E 004°13'4 3.7
2014-Oct-20 22:33N 51°21' E 004°17'0 0.1
2014-Oct-20 21:34N 51°21' E 004°17'2 2.1
2014-Oct-20 20:33N 51°19' E 004°19'3 3.3
2014-Oct-20 19:33N 51°16' E 004°20'0 0.0
2014-Oct-20 18:32N 51°16' E 004°20'0 0.0
2014-Oct-20 17:32N 51°16' E 004°20'0 0.0
2014-Oct-20 16:23N 51°16' E 004°20'0 0.0
2014-Oct-20 15:32N 51°16' E 004°20'0 0.0
2014-Oct-20 14:20N 51°16' E 004°20'0 0.0
2014-Oct-20 13:23N 51°16' E 004°20'0 0.0
2014-Oct-20 12:26N 51°16' E 004°20'0 0.0
2014-Oct-20 11:32N 51°16' E 004°20'0 0.0
2014-Oct-20 10:32N 51°16' E 004°20'0 0.0
2014-Oct-20 09:32N 51°16' E 004°20'0 0.0
2014-Oct-20 08:26N 51°16' E 004°20'0 0.0
2014-Oct-20 07:20N 51°16' E 004°20'0 0.0
2014-Oct-20 06:08N 51°16' E 004°20'0 0.0
2014-Oct-20 05:20N 51°16' E 004°20'0 0.0
2014-Oct-20 04:20N 51°16' E 004°20'0 0.0
2014-Oct-20 03:32N 51°16' E 004°20'0 0.0
2014-Oct-20 02:26N 51°16' E 004°20'0 0.0
2014-Oct-20 01:32N 51°16' E 004°20'0 0.0
2014-Oct-20 00:32N 51°16' E 004°20'0 0.0
2014-Oct-19 23:32N 51°16' E 004°20'0 0.0
2014-Oct-19 22:32N 51°16' E 004°20'0 0.0
2014-Oct-19 21:32N 51°16' E 004°20'0 0.0
2014-Oct-19 20:26N 51°16' E 004°20'0 0.0
2014-Oct-19 19:26N 51°16' E 004°20'0 0.0
2014-Oct-19 18:26N 51°16' E 004°20'0 0.0
2014-Oct-19 17:14N 51°16' E 004°20'0 0.0
2014-Oct-19 15:29N 51°16' E 004°20'0 0.0
2014-Oct-19 14:29N 51°16' E 004°20'0 0.0
2014-Oct-19 13:29N 51°16' E 004°20'0 0.0
2014-Oct-19 12:32N 51°16' E 004°20'0 0.0
2014-Oct-19 11:26N 51°16' E 004°20'0 0.0
2014-Oct-19 10:26N 51°16' E 004°20'0 0.0
2014-Oct-19 09:32N 51°16' E 004°20'0 0.0
2014-Oct-19 08:32N 51°16' E 004°20'0 0.0
2014-Oct-19 07:26N 51°16' E 004°20'0 0.0
2014-Oct-19 06:32N 51°16' E 004°20'0 0.0
2014-Oct-19 05:32N 51°16' E 004°20'0 0.0
2014-Oct-19 04:26N 51°16' E 004°20'0 0.0
2014-Oct-19 03:32N 51°16' E 004°20'0 0.0
2014-Oct-19 02:32N 51°16' E 004°20'0 0.0
2014-Oct-19 01:32N 51°16' E 004°20'0 0.0
2014-Oct-19 00:26N 51°16' E 004°20'0 0.0
2014-Oct-18 23:20N 51°16' E 004°20'0 0.0
2014-Oct-18 22:26N 51°16' E 004°20'0 0.0
2014-Oct-18 21:33N 51°16' E 004°20'2 2.2
2014-Oct-18 20:33N 51°18' E 004°20'3 3.1
2014-Oct-18 19:33N 51°21' E 004°17'0 0.3
2014-Oct-18 18:34N 51°21' E 004°17'5 4.8
2014-Oct-18 17:33N 51°23' E 004°10'8 8.2
2014-Oct-18 16:33N 51°24' E 003°57'10 9.7
2014-Oct-18 15:33N 51°24' E 003°42'10 9.9
2014-Oct-18 14:33N 51°30' E 003°29'1211.8
2014-Oct-18 13:33N 51°40' E 003°19'6 5.7
2014-Oct-18 12:27N 51°46' E 003°18'0 0.0
2014-Oct-18 07:18N 51°46' E 003°18'0 0.0
2014-Oct-18 06:21N 51°46' E 003°18'0 0.0
2014-Oct-18 04:18N 51°46' E 003°18'0 0.0
2014-Oct-18 03:33N 51°46' E 003°18'0 0.0
2014-Oct-18 02:27N 51°46' E 003°18'0 0.0
2014-Oct-17 23:27N 51°46' E 003°18'0 0.0
2014-Oct-17 22:12N 51°46' E 003°18'0 0.0
2014-Oct-17 21:06N 51°46' E 003°18'0 0.0
2014-Oct-17 19:18N 51°46' E 003°18'0 0.1
2014-Oct-17 18:09N 51°46' E 003°18'610.1
2014-Oct-17 17:33N 51°47' E 003°08'21 7.0
2014-Oct-17 14:33N 52°03' E 003°29'1313.3
2014-Oct-17 13:33N 52°03' E 003°51'7 6.7
2014-Oct-17 12:33N 52°02' E 004°02'9 9.0
2014-Oct-17 11:33N 51°56' E 004°13'4 3.3
2014-Oct-17 10:12N 51°53' E 004°18'0 0.0
2014-Oct-17 09:09N 51°53' E 004°18'0 0.0
2014-Oct-17 08:27N 51°53' E 004°18'0 0.0
2014-Oct-17 07:27N 51°53' E 004°18'0 0.0
2014-Oct-17 05:15N 51°53' E 004°18'0 0.0
2014-Oct-17 04:06N 51°53' E 004°18'0 0.0
2014-Oct-17 02:09N 51°53' E 004°18'0 0.0
2014-Oct-17 01:15N 51°53' E 004°18'0 0.0
2014-Oct-17 00:33N 51°53' E 004°18'0 0.0
2014-Oct-16 23:30N 51°53' E 004°18'0 0.0
2014-Oct-16 22:21N 51°53' E 004°18'0 0.0
2014-Oct-16 21:27N 51°53' E 004°18'0 0.0
2014-Oct-16 20:33N 51°53' E 004°18'0 0.0
2014-Oct-16 19:24N 51°53' E 004°18'0 0.0
2014-Oct-16 18:24N 51°53' E 004°18'0 0.0
2014-Oct-16 17:24N 51°53' E 004°18'0 0.0
2014-Oct-16 16:33N 51°53' E 004°18'0 0.0
2014-Oct-16 15:12N 51°53' E 004°18'0 0.0
2014-Oct-16 14:18N 51°53' E 004°18'0 0.0
2014-Oct-16 13:33N 51°53' E 004°18'0 0.0
2014-Oct-16 12:33N 51°53' E 004°18'3 2.9
2014-Oct-16 11:33N 51°55' E 004°14'1111.1
2014-Oct-16 10:33N 52°00' E 003°59'1110.7
2014-Oct-16 09:33N 52°05' E 003°43'4 3.5
2014-Oct-16 08:33N 52°09' E 003°41'0 0.0
2014-Oct-16 07:30N 52°09' E 003°41'3 3.4
2014-Oct-16 06:32N 52°10' E 003°37'1312.9
2014-Oct-16 05:32N 52°14' E 003°16'1211.9
2014-Oct-16 04:33N 52°20' E 003°00'4012.5
2014-Oct-16 01:20N 52°43' E 002°06'1113.6
2014-Oct-16 00:34N 52°48' E 001°51'1413.8
2014-Oct-15 23:34N 52°58' E 001°34'1313.3
2014-Oct-15 22:33N 53°09' E 001°22'3012.3
2014-Oct-15 20:07N 53°26' E 000°40'712.5
2014-Oct-15 19:33N 53°29' E 000°30'1211.6
2014-Oct-15 18:33N 53°33' E 000°11'  
Track history (hours):
 
Tides and Currents Weather Stations Pressure Air Temp Water Temp Dewpoint Dewpoint Depression Visibility Wind Speed Wind Dir Waves Ship Positions

Othello

Last reported at 2014-Oct-25 18:29 UTC. Time now 2014-Oct-25 19:01 UTC.
Position N 51°46' E 003°19'.

Length 104 m; draft 7.2 m.

Type: Ship. MMSI: 253279000.

Date/timePositionNaut miles runAvg speedWind from/ knotsBaromVisibWave heightAir tempDewpointWater temp
2014-Oct-25 18:29N 51°46' E 003°19'0 0.0
2014-Oct-25 17:32N 51°46' E 003°19'0 0.0
2014-Oct-25 12:29N 51°45' E 003°19'0 0.0
2014-Oct-25 06:11N 51°46' E 003°19'0 0.0
2014-Oct-25 01:32N 51°46' E 003°19'0 0.0
2014-Oct-25 00:32N 51°46' E 003°19'0 0.0
2014-Oct-24 23:32N 51°46' E 003°19'0 0.1
2014-Oct-24 22:26N 51°46' E 003°19'45 4.5
2014-Oct-24 12:27N 52°14' E 002°23'12 9.7
2014-Oct-24 11:13N 52°25' E 002°17'710.6
2014-Oct-24 10:33N 52°32' E 002°13'1110.8
2014-Oct-24 09:32N 52°42' E 002°07'1211.9
2014-Oct-24 08:33N 52°49' E 001°51'1312.5
2014-Oct-24 07:33N 52°57' E 001°35'1211.9
2014-Oct-24 06:33N 53°07' E 001°24'4511.1
2014-Oct-24 02:33N 53°45' E 000°45'1010.2
2014-Oct-24 01:33N 53°53' E 000°36'9 9.5
2014-Oct-24 00:33N 54°01' E 000°27'9 8.8
2014-Oct-23 23:33N 54°08' E 000°19'8 8.0
2014-Oct-23 22:33N 54°15' E 000°12'8 7.9
2014-Oct-23 21:33N 54°22' E 000°05'8 8.0
2014-Oct-23 20:33N 54°29' W 000°03'8 8.4
2014-Oct-23 19:33N 54°36' W 000°11'9 8.8
2014-Oct-23 18:33N 54°42' W 000°22'10 9.7
2014-Oct-23 17:33N 54°47' W 000°36'11 8.1
2014-Oct-23 16:08N 54°45' W 000°56'6 9.5
2014-Oct-23 15:33N 54°41' W 001°04'7 5.3
2014-Oct-23 14:15N 54°36' W 001°11'0 0.0
2014-Oct-23 09:30N 54°36' W 001°11'0 0.0
2014-Oct-23 07:34N 54°36' W 001°11'0 0.0
2014-Oct-22 10:24N 54°36' W 001°11'2 1.9
2014-Oct-22 09:33N 54°37' W 001°09'10 9.6
2014-Oct-22 08:33N 54°38' W 000°53'1311.7
2014-Oct-22 07:25N 54°32' W 000°32'910.5
2014-Oct-22 06:33N 54°25' W 000°22'10 9.7
2014-Oct-22 05:33N 54°17' W 000°12'9 9.0
2014-Oct-22 04:33N 54°10' W 000°03'8 8.4
2014-Oct-22 03:33N 54°03' E 000°05'8 7.9
2014-Oct-22 02:33N 53°56' E 000°12'8 7.7
2014-Oct-22 01:33N 53°49' E 000°18'7 7.5
2014-Oct-22 00:33N 53°43' E 000°25'8 7.9
2014-Oct-21 23:33N 53°37' E 000°34'9 8.6
2014-Oct-21 22:32N 53°32' E 000°46'31 6.2
2014-Oct-21 17:33N 53°09' E 001°20'2 1.7
2014-Oct-21 16:34N 53°08' E 001°22'3 2.7
2014-Oct-21 15:33N 53°06' E 001°25'5 4.8
2014-Oct-21 14:33N 53°01' E 001°29'8 7.6
2014-Oct-21 13:33N 52°56' E 001°37'1111.4
2014-Oct-21 12:33N 52°49' E 001°52'1211.8
2014-Oct-21 11:30N 52°41' E 002°08'1111.6
2014-Oct-21 10:32N 52°31' E 002°14'5210.0
2014-Oct-21 05:22N 51°46' E 002°55'810.4
2014-Oct-21 04:33N 51°45' E 003°09'10 9.6
2014-Oct-21 03:33N 51°38' E 003°20'1212.6
2014-Oct-21 02:33N 51°28' E 003°31'1010.2
2014-Oct-21 01:34N 51°22' E 003°45'1110.6
2014-Oct-21 00:33N 51°26' E 004°00'8 8.3
2014-Oct-20 23:34N 51°23' E 004°13'4 3.7
2014-Oct-20 22:33N 51°21' E 004°17'0 0.1
2014-Oct-20 21:34N 51°21' E 004°17'2 2.1
2014-Oct-20 20:33N 51°19' E 004°19'3 3.3
2014-Oct-20 19:33N 51°16' E 004°20'0 0.0
2014-Oct-20 18:32N 51°16' E 004°20'0 0.0
2014-Oct-20 17:32N 51°16' E 004°20'0 0.0
2014-Oct-20 16:23N 51°16' E 004°20'0 0.0
2014-Oct-20 15:32N 51°16' E 004°20'0 0.0
2014-Oct-20 14:20N 51°16' E 004°20'0 0.0
2014-Oct-20 13:23N 51°16' E 004°20'0 0.0
2014-Oct-20 12:26N 51°16' E 004°20'0 0.0
2014-Oct-20 11:32N 51°16' E 004°20'0 0.0
2014-Oct-20 10:32N 51°16' E 004°20'0 0.0
2014-Oct-20 09:32N 51°16' E 004°20'0 0.0
2014-Oct-20 08:26N 51°16' E 004°20'0 0.0
2014-Oct-20 07:20N 51°16' E 004°20'0 0.0
2014-Oct-20 06:08N 51°16' E 004°20'0 0.0
2014-Oct-20 05:20N 51°16' E 004°20'0 0.0
2014-Oct-20 04:20N 51°16' E 004°20'0 0.0
2014-Oct-20 03:32N 51°16' E 004°20'0 0.0
2014-Oct-20 02:26N 51°16' E 004°20'0 0.0
2014-Oct-20 01:32N 51°16' E 004°20'0 0.0
2014-Oct-20 00:32N 51°16' E 004°20'0 0.0
2014-Oct-19 23:32N 51°16' E 004°20'0 0.0
2014-Oct-19 22:32N 51°16' E 004°20'0 0.0
2014-Oct-19 21:32N 51°16' E 004°20'0 0.0
2014-Oct-19 20:26N 51°16' E 004°20'0 0.0
2014-Oct-19 19:26N 51°16' E 004°20'0 0.0
2014-Oct-19 18:26N 51°16' E 004°20'0 0.0
2014-Oct-19 17:14N 51°16' E 004°20'0 0.0
2014-Oct-19 15:29N 51°16' E 004°20'0 0.0
2014-Oct-19 14:29N 51°16' E 004°20'0 0.0
2014-Oct-19 13:29N 51°16' E 004°20'0 0.0
2014-Oct-19 12:32N 51°16' E 004°20'0 0.0
2014-Oct-19 11:26N 51°16' E 004°20'0 0.0
2014-Oct-19 10:26N 51°16' E 004°20'0 0.0
2014-Oct-19 09:32N 51°16' E 004°20'0 0.0
2014-Oct-19 08:32N 51°16' E 004°20'0 0.0
2014-Oct-19 07:26N 51°16' E 004°20'0 0.0
2014-Oct-19 06:32N 51°16' E 004°20'0 0.0
2014-Oct-19 05:32N 51°16' E 004°20'0 0.0
2014-Oct-19 04:26N 51°16' E 004°20'0 0.0
2014-Oct-19 03:32N 51°16' E 004°20'0 0.0
2014-Oct-19 02:32N 51°16' E 004°20'0 0.0
2014-Oct-19 01:32N 51°16' E 004°20'0 0.0
2014-Oct-19 00:26N 51°16' E 004°20'0 0.0
2014-Oct-18 23:20N 51°16' E 004°20'0 0.0
2014-Oct-18 22:26N 51°16' E 004°20'0 0.0
2014-Oct-18 21:33N 51°16' E 004°20'2 2.2
2014-Oct-18 20:33N 51°18' E 004°20'3 3.1
2014-Oct-18 19:33N 51°21' E 004°17'0 0.3
2014-Oct-18 18:34N 51°21' E 004°17'5 4.8
2014-Oct-18 17:33N 51°23' E 004°10'8 8.2
2014-Oct-18 16:33N 51°24' E 003°57'10 9.7
2014-Oct-18 15:33N 51°24' E 003°42'10 9.9
2014-Oct-18 14:33N 51°30' E 003°29'1211.8
2014-Oct-18 13:33N 51°40' E 003°19'6 5.7
2014-Oct-18 12:27N 51°46' E 003°18'0 0.0
2014-Oct-18 07:18N 51°46' E 003°18'0 0.0
2014-Oct-18 06:21N 51°46' E 003°18'0 0.0
2014-Oct-18 04:18N 51°46' E 003°18'0 0.0
2014-Oct-18 03:33N 51°46' E 003°18'0 0.0
2014-Oct-18 02:27N 51°46' E 003°18'0 0.0
2014-Oct-17 23:27N 51°46' E 003°18'0 0.0
2014-Oct-17 22:12N 51°46' E 003°18'0 0.0
2014-Oct-17 21:06N 51°46' E 003°18'0 0.0
2014-Oct-17 19:18N 51°46' E 003°18'0 0.1
2014-Oct-17 18:09N 51°46' E 003°18'610.1
2014-Oct-17 17:33N 51°47' E 003°08'21 7.0
2014-Oct-17 14:33N 52°03' E 003°29'1313.3
2014-Oct-17 13:33N 52°03' E 003°51'7 6.7
2014-Oct-17 12:33N 52°02' E 004°02'9 9.0
2014-Oct-17 11:33N 51°56' E 004°13'4 3.3
2014-Oct-17 10:12N 51°53' E 004°18'0 0.0
2014-Oct-17 09:09N 51°53' E 004°18'0 0.0
2014-Oct-17 08:27N 51°53' E 004°18'0 0.0
2014-Oct-17 07:27N 51°53' E 004°18'0 0.0
2014-Oct-17 05:15N 51°53' E 004°18'0 0.0
2014-Oct-17 04:06N 51°53' E 004°18'0 0.0
2014-Oct-17 02:09N 51°53' E 004°18'0 0.0
2014-Oct-17 01:15N 51°53' E 004°18'0 0.0
2014-Oct-17 00:33N 51°53' E 004°18'0 0.0
2014-Oct-16 23:30N 51°53' E 004°18'0 0.0
2014-Oct-16 22:21N 51°53' E 004°18'0 0.0
2014-Oct-16 21:27N 51°53' E 004°18'0 0.0
2014-Oct-16 20:33N 51°53' E 004°18'0 0.0
2014-Oct-16 19:24N 51°53' E 004°18'0 0.0
2014-Oct-16 18:24N 51°53' E 004°18'0 0.0
2014-Oct-16 17:24N 51°53' E 004°18'0 0.0
2014-Oct-16 16:33N 51°53' E 004°18'0 0.0
2014-Oct-16 15:12N 51°53' E 004°18'0 0.0
2014-Oct-16 14:18N 51°53' E 004°18'0 0.0
2014-Oct-16 13:33N 51°53' E 004°18'0 0.0
2014-Oct-16 12:33N 51°53' E 004°18'3 2.9
2014-Oct-16 11:33N 51°55' E 004°14'1111.1
2014-Oct-16 10:33N 52°00' E 003°59'1110.7
2014-Oct-16 09:33N 52°05' E 003°43'4 3.5
2014-Oct-16 08:33N 52°09' E 003°41'0 0.0
2014-Oct-16 07:30N 52°09' E 003°41'3 3.4
2014-Oct-16 06:32N 52°10' E 003°37'1312.9
2014-Oct-16 05:32N 52°14' E 003°16'1211.9
2014-Oct-16 04:33N 52°20' E 003°00'4012.5
2014-Oct-16 01:20N 52°43' E 002°06'1113.6
2014-Oct-16 00:34N 52°48' E 001°51'1413.8
2014-Oct-15 23:34N 52°58' E 001°34'1313.3
2014-Oct-15 22:33N 53°09' E 001°22'3012.3
2014-Oct-15 20:07N 53°26' E 000°40'712.5
2014-Oct-15 19:33N 53°29' E 000°30'1211.6
2014-Oct-15 18:33N 53°33' E 000°11'  

Dump ship's entire track history